Time;durP1;ratioP1;P1;durP2;ratioP2;P2;SDS_P1;SDS_P2;PMS_P1;PMS_P2;Temp;Humidity;BMP_temperature;BMP_pressure;BME280_temperature;BME280_humidity;BME280_pressure;Samples;Min_cycle;Max_cycle;Signal;HPM_P1;HPM_P2
2023/06/24 00:02:20;;;;;;;1.63;0.83;;;;;;;17.74;100.00;99684.28;5091984;28;20690;-76
2023/06/24 00:04:47;;;;;;;0.80;0.77;;;;;;;17.82;100.00;99687.31;5090647;28;20228;-75
2023/06/24 00:07:13;;;;;;;0.67;0.67;;;;;;;17.93;100.00;99686.25;5093852;28;20242;-76
2023/06/24 00:09:40;;;;;;;0.73;0.73;;;;;;;17.83;100.00;99685.38;5095542;28;20658;-75
2023/06/24 00:12:07;;;;;;;1.93;0.90;;;;;;;17.79;100.00;99693.25;5095409;28;20703;-76
2023/06/24 00:14:36;;;;;;;1.17;0.70;;;;;;;17.71;100.00;99690.22;5094100;28;20206;-76
2023/06/24 00:17:04;;;;;;;0.90;0.90;;;;;;;17.72;100.00;99698.09;5076102;28;20208;-76
2023/06/24 00:19:32;;;;;;;0.97;0.80;;;;;;;17.57;100.00;99679.84;5090641;28;20689;-76
2023/06/24 00:21:58;;;;;;;0.80;0.80;;;;;;;17.58;100.00;99688.78;5094461;28;20200;-76
2023/06/24 00:24:25;;;;;;;0.80;0.80;;;;;;;17.43;100.00;99688.72;5092807;28;20583;-77
2023/06/24 00:26:53;;;;;;;0.73;0.73;;;;;;;17.36;100.00;99682.69;5091169;28;20199;-76
2023/06/24 00:29:19;;;;;;;0.70;0.70;;;;;;;17.35;100.00;99698.16;5093066;28;20218;-76
2023/06/24 00:31:46;;;;;;;0.67;0.67;;;;;;;17.28;100.00;99697.56;5094809;28;20188;-76
2023/06/24 00:34:13;;;;;;;0.70;0.70;;;;;;;17.54;100.00;99691.19;5096241;28;20203;-75
2023/06/24 00:36:40;;;;;;;0.83;0.80;;;;;;;17.57;100.00;99679.84;5062454;28;20213;-75
2023/06/24 00:39:07;;;;;;;1.30;0.90;;;;;;;17.73;100.00;99679.94;5076200;28;20189;-76
2023/06/24 00:41:35;;;;;;;2.20;0.87;;;;;;;17.55;100.00;99692.00;5094651;28;20190;-76
2023/06/24 00:44:02;;;;;;;0.80;0.80;;;;;;;17.48;100.00;99694.16;5096843;28;20681;-77
2023/06/24 00:46:33;;;;;;;0.73;0.73;;;;;;;17.45;100.00;99691.97;5080567;28;20568;-76
2023/06/24 00:49:02;;;;;;;0.97;0.77;;;;;;;17.42;100.00;99684.38;5082870;28;20272;-76
2023/06/24 00:51:31;;;;;;;1.47;0.93;;;;;;;17.53;100.00;99683.34;5112990;28;20196;-76
2023/06/24 00:53:58;;;;;;;1.27;0.83;;;;;;;17.63;100.00;99688.03;5114767;28;20243;-75
2023/06/24 00:56:31;;;;;;;0.97;0.90;;;;;;;17.79;100.00;99681.59;5089219;28;20219;-75
2023/06/24 00:59:01;;;;;;;1.00;0.90;;;;;;;17.60;100.00;99665.78;5097032;28;20658;-76
2023/06/24 01:01:37;;;;;;;1.00;0.90;;;;;;;17.68;100.00;99675.34;5095596;28;20211;-75
2023/06/24 01:04:04;;;;;;;1.60;0.97;;;;;;;17.60;100.00;99671.22;5114466;28;20658;-75
2023/06/24 01:06:32;;;;;;;1.10;1.00;;;;;;;17.61;100.00;99677.44;5096194;28;20195;-75
2023/06/24 01:09:00;;;;;;;1.27;0.90;;;;;;;17.67;100.00;99679.13;5095107;28;20202;-76
2023/06/24 01:11:27;;;;;;;1.20;1.10;;;;;;;17.58;100.00;99675.25;5114813;28;20224;-76
2023/06/24 01:13:54;;;;;;;0.97;0.97;;;;;;;17.58;100.00;99649.00;5111806;28;20564;-77
2023/06/24 01:16:54;;;;;;;1.10;1.00;;;;;;;17.64;100.00;99646.31;5113995;28;20612;-77
2023/06/24 01:19:33;;;;;;;1.10;1.00;;;;;;;17.69;100.00;99636.28;5100633;28;20334;-76
2023/06/24 01:22:12;;;;;;;1.07;1.00;;;;;;;17.57;100.00;99638.41;5096806;28;20199;-75
2023/06/24 01:24:47;;;;;;;1.10;1.03;;;;;;;17.52;100.00;99638.38;5073897;28;20231;-77
2023/06/24 01:27:28;;;;;;;1.20;1.10;;;;;;;17.47;100.00;99650.00;5096832;28;20222;-76
2023/06/24 01:30:02;;;;;;;1.30;1.20;;;;;;;17.48;100.00;99646.22;5089412;28;20578;-76
2023/06/24 01:32:36;;;;;;;1.10;1.00;;;;;;;17.49;100.00;99649.75;5096428;28;20198;-76
2023/06/24 01:35:06;;;;;;;1.20;1.10;;;;;;;17.55;100.00;99646.78;5080020;28;20641;-75
2023/06/24 01:37:37;;;;;;;1.40;1.30;;;;;;;17.56;100.00;99659.25;5095016;28;20254;-75
2023/06/24 01:40:31;;;;;;;1.10;1.10;;;;;;;17.51;100.00;99659.22;5080179;28;20219;-77
2023/06/24 01:42:59;;;;;;;1.30;1.20;;;;;;;17.52;100.00;99665.47;5077480;28;20196;-76
2023/06/24 01:45:28;;;;;;;1.17;1.07;;;;;;;17.43;100.00;99665.16;5084592;28;20196;-77
2023/06/24 01:48:07;;;;;;;1.40;1.30;;;;;;;17.43;100.00;99686.00;5082407;28;20618;-75
2023/06/24 01:50:36;;;;;;;2.13;1.20;;;;;;;17.35;100.00;99681.09;5083025;28;20707;-75
2023/06/24 01:53:05;;;;;;;1.77;1.20;;;;;;;17.33;100.00;99689.47;5095334;28;20617;-76
2023/06/24 01:55:33;;;;;;;1.47;1.37;;;;;;;17.40;100.00;99687.34;5095382;28;20777;-75
2023/06/24 01:58:03;;;;;;;1.80;1.20;;;;;;;17.37;100.00;99682.44;5096152;28;20192;-75
2023/06/24 02:00:29;;;;;;;1.40;1.30;;;;;;;17.55;100.00;99675.75;5092089;28;20196;-74
2023/06/24 02:02:56;;;;;;;1.30;1.20;;;;;;;17.45;100.00;99679.22;5087966;28;20246;-76
2023/06/24 02:05:24;;;;;;;1.57;1.10;;;;;;;17.51;100.00;99689.03;5113615;28;20207;-75
2023/06/24 02:07:52;;;;;;;1.50;1.07;;;;;;;17.45;100.00;99681.16;5109941;28;20193;-75
2023/06/24 02:10:20;;;;;;;1.37;1.20;;;;;;;17.48;100.00;99673.31;5095566;28;20188;-74
2023/06/24 02:12:48;;;;;;;1.27;1.10;;;;;;;17.67;100.00;99662.84;5088058;28;20200;-75
2023/06/24 02:15:16;;;;;;;1.20;1.10;;;;;;;17.65;100.00;99673.13;5078382;28;20216;-75
2023/06/24 02:17:43;;;;;;;0.90;0.90;;;;;;;17.54;100.00;99669.53;5113472;28;20696;-75
2023/06/24 02:20:10;;;;;;;0.83;0.80;;;;;;;17.74;100.00;99652.56;5108343;28;20206;-75
2023/06/24 02:22:39;;;;;;;0.90;0.80;;;;;;;17.78;100.00;99663.69;5113348;28;20583;-75
2023/06/24 02:25:06;;;;;;;0.70;0.70;;;;;;;17.54;100.00;99672.22;5113302;28;20188;-75
2023/06/24 02:27:35;;;;;;;1.10;1.00;;;;;;;17.49;100.00;99672.22;5103240;28;20233;-75
2023/06/24 02:30:04;;;;;;;0.80;0.80;;;;;;;17.42;100.00;99674.34;5094759;28;20200;-75
2023/06/24 02:32:30;;;;;;;1.00;0.90;;;;;;;17.50;100.00;99673.84;5076685;28;20618;-75
2023/06/24 02:34:59;;;;;;;0.70;0.70;;;;;;;17.67;100.00;99675.59;5089819;28;20698;-75
2023/06/24 02:37:27;;;;;;;0.83;0.83;;;;;;;17.65;100.00;99683.16;5078571;28;20646;-75
2023/06/24 02:39:54;;;;;;;0.83;0.83;;;;;;;17.72;100.00;99675.59;5112583;28;20183;-76
2023/06/24 02:42:21;;;;;;;0.80;0.77;;;;;;;17.71;100.00;99680.22;5094664;28;20192;-75
2023/06/24 02:44:49;;;;;;;0.80;0.80;;;;;;;17.62;100.00;99679.09;5108306;28;20195;-74
2023/06/24 02:47:17;;;;;;;1.63;0.90;;;;;;;17.52;100.00;99682.53;5084009;28;20208;-75
2023/06/24 02:49:46;;;;;;;1.03;0.90;;;;;;;17.62;100.00;99680.97;5083891;28;20188;-75
2023/06/24 02:52:16;;;;;;;2.20;0.90;;;;;;;17.50;100.00;99675.72;5110354;28;20591;-74
2023/06/24 02:54:43;;;;;;;1.00;1.00;;;;;;;17.61;100.00;99682.88;5093239;28;20203;-75
2023/06/24 02:57:29;;;;;;;1.20;1.10;;;;;;;17.66;100.00;99674.75;5097451;28;20271;-75
2023/06/24 03:00:17;;;;;;;1.10;1.00;;;;;;;17.62;100.00;99670.97;5108012;28;20192;-76
2023/06/24 03:03:04;;;;;;;1.10;1.00;;;;;;;17.60;100.00;99673.09;5109837;28;20255;-74
2023/06/24 03:05:33;;;;;;;1.17;1.07;;;;;;;17.40;100.00;99675.69;5094308;28;20295;-76
2023/06/24 03:08:00;;;;;;;0.90;0.90;;;;;;;17.43;100.00;99676.00;5070294;28;20282;-77
2023/06/24 03:10:27;;;;;;;1.00;1.00;;;;;;;17.46;100.00;99675.44;5112280;28;20266;-75
2023/06/24 03:12:54;;;;;;;0.80;0.80;;;;;;;17.46;100.00;99678.16;5109366;28;20715;-74
2023/06/24 03:15:28;;;;;;;1.03;0.90;;;;;;;17.55;100.00;99676.56;5093977;28;20678;-75
2023/06/24 03:17:55;;;;;;;1.97;0.90;;;;;;;17.71;100.00;99673.97;5093908;28;20704;-77
2023/06/24 03:20:23;;;;;;;0.90;0.80;;;;;;;17.68;100.00;99666.38;5074643;28;20195;-77
2023/06/24 03:22:52;;;;;;;0.70;0.70;;;;;;;17.70;100.00;99662.31;5093906;28;20700;-78
2023/06/24 03:25:20;;;;;;;1.27;0.90;;;;;;;17.56;100.00;99664.66;5093464;28;20597;-78
2023/06/24 03:27:47;;;;;;;0.57;0.57;;;;;;;17.71;100.00;99671.25;5084751;28;20585;-78
2023/06/24 03:30:15;;;;;;;1.43;0.80;;;;;;;17.57;100.00;99670.91;5090933;28;20207;-77
2023/06/24 03:32:46;;;;;;;0.80;0.80;;;;;;;17.63;100.00;99667.19;5086042;28;20692;-77
2023/06/24 03:35:15;;;;;;;0.70;0.70;;;;;;;17.52;100.00;99674.41;5083200;28;20204;-78
2023/06/24 03:37:44;;;;;;;0.63;0.63;;;;;;;17.50;100.00;99671.13;5090728;28;20237;-78
2023/06/24 03:40:12;;;;;;;0.60;0.60;;;;;;;17.56;100.00;99680.91;5089607;28;20199;-77
2023/06/24 03:42:39;;;;;;;0.40;0.40;;;;;;;17.50;100.00;99675.72;5087049;28;20295;-77
2023/06/24 03:45:06;;;;;;;0.97;0.50;;;;;;;17.60;100.00;99676.63;5087450;28;20202;-75
2023/06/24 03:47:33;;;;;;;1.43;0.50;;;;;;;17.54;100.00;99677.66;5084130;28;20203;-77
2023/06/24 03:50:00;;;;;;;0.50;0.40;;;;;;;17.60;100.00;99686.66;5106028;28;20192;-75
2023/06/24 03:52:26;;;;;;;0.70;0.50;;;;;;;17.57;100.00;99681.75;5105379;28;20668;-74
2023/06/24 03:54:53;;;;;;;0.20;0.20;;;;;;;17.60;100.00;99681.22;5093825;28;20235;-75
2023/06/24 03:57:20;;;;;;;0.40;0.40;;;;;;;17.43;100.00;99678.69;5106659;28;20257;-75
2023/06/24 03:59:47;;;;;;;0.40;0.40;;;;;;;17.51;100.00;99691.72;5082614;28;20680;-75
2023/06/24 04:02:15;;;;;;;0.30;0.30;;;;;;;17.56;100.00;99686.34;5093762;28;20218;-75
2023/06/24 04:04:42;;;;;;;0.30;0.30;;;;;;;17.48;100.00;99692.25;5085945;28;20228;-75
2023/06/24 04:07:08;;;;;;;0.30;0.30;;;;;;;17.43;100.00;99692.25;5094336;28;20192;-76
2023/06/24 04:09:36;;;;;;;0.30;0.30;;;;;;;17.46;100.00;99707.94;5094188;28;20222;-78
2023/06/24 04:12:03;;;;;;;0.43;0.30;;;;;;;17.48;100.00;99699.56;5092884;28;20207;-75
2023/06/24 04:14:33;;;;;;;1.13;0.30;;;;;;;17.43;100.00;99708.47;5093568;28;20219;-78
2023/06/24 04:17:01;;;;;;;0.40;0.40;;;;;;;17.48;100.00;99713.13;5086502;28;20240;-76
2023/06/24 04:19:29;;;;;;;0.30;0.30;;;;;;;17.59;100.00;99714.81;5093554;28;20200;-75
2023/06/24 04:21:55;;;;;;;0.40;0.40;;;;;;;17.58;100.00;99719.44;5095265;28;20625;-75
2023/06/24 04:24:22;;;;;;;0.57;0.30;;;;;;;17.70;100.00;99713.78;5070311;28;20710;-74
2023/06/24 04:26:49;;;;;;;0.30;0.30;;;;;;;17.79;100.00;99723.06;5078305;28;20181;-74
2023/06/24 04:29:16;;;;;;;0.40;0.30;;;;;;;17.82;100.00;99735.28;5073979;28;20193;-74
2023/06/24 04:31:43;;;;;;;0.20;0.20;;;;;;;17.91;100.00;99745.34;5085099;28;20258;-78
2023/06/24 04:34:09;;;;;;;0.30;0.30;;;;;;;17.75;100.00;99753.66;5089906;28;20236;-75
2023/06/24 04:36:37;;;;;;;0.30;0.30;;;;;;;17.80;100.00;99743.66;5090298;28;20311;-74
2023/06/24 04:39:03;;;;;;;0.30;0.30;;;;;;;17.73;100.00;99737.66;5094621;28;20203;-74
2023/06/24 04:41:31;;;;;;;0.30;0.30;;;;;;;17.74;100.00;99730.34;5091966;28;20230;-75
2023/06/24 04:43:59;;;;;;;0.30;0.30;;;;;;;17.60;100.00;99744.38;5093473;28;20197;-74
2023/06/24 04:46:25;;;;;;;0.40;0.30;;;;;;;17.48;100.00;99743.72;5089540;28;20203;-75
2023/06/24 04:48:52;;;;;;;0.30;0.30;;;;;;;17.55;100.00;99736.16;5094700;28;20203;-74
2023/06/24 04:51:19;;;;;;;0.30;0.30;;;;;;;17.53;100.00;99740.22;5090382;28;20203;-77
2023/06/24 04:53:45;;;;;;;2.43;0.70;;;;;;;17.52;100.00;99749.44;5090433;28;20208;-74
2023/06/24 04:56:12;;;;;;;0.67;0.40;;;;;;;17.50;100.00;99751.56;5094368;28;20281;-74
2023/06/24 04:58:39;;;;;;;0.30;0.30;;;;;;;17.41;100.00;99761.25;5094618;28;20608;-75
2023/06/24 05:01:05;;;;;;;0.30;0.30;;;;;;;17.59;100.00;99753.56;5091193;28;20200;-74
2023/06/24 05:03:32;;;;;;;0.80;0.30;;;;;;;17.65;100.00;99770.66;5095806;28;20651;-74
2023/06/24 05:05:59;;;;;;;0.30;0.30;;;;;;;17.70;100.00;99773.41;5108441;28;20206;-75
2023/06/24 05:08:25;;;;;;;0.20;0.20;;;;;;;17.56;100.00;99773.03;5111744;28;20184;-75
2023/06/24 05:10:52;;;;;;;0.40;0.40;;;;;;;17.66;100.00;99775.00;5114605;28;20253;-75
2023/06/24 05:13:19;;;;;;;0.30;0.30;;;;;;;17.73;100.00;99780.22;5096994;28;20196;-75
2023/06/24 05:15:45;;;;;;;0.30;0.30;;;;;;;17.55;100.00;99795.78;5114374;28;20199;-75
2023/06/24 05:18:12;;;;;;;0.30;0.30;;;;;;;17.62;100.00;99789.34;5110466;28;20188;-74
2023/06/24 05:20:39;;;;;;;0.30;0.30;;;;;;;17.62;100.00;99787.47;5088890;28;20193;-76
2023/06/24 05:23:05;;;;;;;0.50;0.20;;;;;;;17.65;100.00;99799.66;5094185;28;20208;-75
2023/06/24 05:25:32;;;;;;;0.37;0.37;;;;;;;17.76;100.00;99801.34;5096163;28;20254;-75
2023/06/24 05:27:59;;;;;;;0.30;0.30;;;;;;;17.67;100.00;99808.34;5108448;28;20271;-75
2023/06/24 05:30:26;;;;;;;0.63;0.37;;;;;;;17.79;100.00;99809.78;5111087;28;20257;-77
2023/06/24 05:32:52;;;;;;;1.27;0.30;;;;;;;17.81;100.00;99807.63;5102280;28;20188;-74
2023/06/24 05:35:19;;;;;;;0.30;0.30;;;;;;;17.78;100.00;99813.53;5097729;28;20180;-74
2023/06/24 05:37:46;;;;;;;0.63;0.30;;;;;;;17.75;100.00;99819.50;5096447;28;20269;-74
2023/06/24 05:40:13;;;;;;;0.33;0.33;;;;;;;17.80;100.00;99824.97;5097268;28;20191;-74
2023/06/24 05:42:40;;;;;;;0.30;0.30;;;;;;;17.86;100.00;99834.75;5099941;28;20192;-73
2023/06/24 05:45:07;;;;;;;0.30;0.30;;;;;;;17.92;100.00;99836.41;5096015;28;20245;-74
2023/06/24 05:47:33;;;;;;;0.30;0.30;;;;;;;17.96;100.00;99837.50;5099167;28;20195;-75
2023/06/24 05:50:00;;;;;;;0.50;0.30;;;;;;;17.89;100.00;99833.41;5113583;28;20199;-76
2023/06/24 05:52:28;;;;;;;1.13;0.37;;;;;;;17.91;100.00;99848.34;5113920;28;20249;-75
2023/06/24 05:54:55;;;;;;;0.40;0.40;;;;;;;18.06;100.00;99839.44;5113690;28;20205;-76
2023/06/24 05:57:22;;;;;;;0.40;0.40;;;;;;;18.06;100.00;99838.66;5088802;28;20282;-75
2023/06/24 05:59:49;;;;;;;0.30;0.30;;;;;;;18.06;100.00;99846.81;5098297;28;20246;-76
2023/06/24 06:02:15;;;;;;;0.30;0.30;;;;;;;18.20;100.00;99839.78;5093162;28;20628;-75
2023/06/24 06:04:42;;;;;;;0.40;0.40;;;;;;;18.13;100.00;99844.66;5091942;28;20663;-74
2023/06/24 06:07:09;;;;;;;0.30;0.30;;;;;;;18.18;100.00;99847.38;5090184;28;20609;-74
2023/06/24 06:09:36;;;;;;;0.40;0.40;;;;;;;18.27;100.00;99848.53;5092106;28;20280;-76
2023/06/24 06:12:03;;;;;;;0.60;0.40;;;;;;;18.27;100.00;99856.66;5091378;28;20224;-75
2023/06/24 06:14:30;;;;;;;0.40;0.40;;;;;;;18.33;100.00;99858.31;5089999;28;20195;-75
2023/06/24 06:16:56;;;;;;;0.40;0.40;;;;;;;18.29;100.00;99866.16;5101021;28;20624;-76
2023/06/24 06:19:23;;;;;;;0.70;0.50;;;;;;;18.43;100.00;99872.72;5099633;28;20655;-74
2023/06/24 06:21:51;;;;;;;0.37;0.37;;;;;;;18.19;100.00;99868.00;5096394;28;20635;-75
2023/06/24 06:24:18;;;;;;;0.70;0.40;;;;;;;18.27;100.00;99875.63;5104635;28;20207;-76
2023/06/24 06:26:44;;;;;;;1.20;0.40;;;;;;;18.38;100.00;99875.41;5112365;27;20203;-76
2023/06/24 06:29:11;;;;;;;0.37;0.37;;;;;;;18.29;100.00;99879.69;5109579;28;20566;-75
2023/06/24 06:31:38;;;;;;;0.40;0.40;;;;;;;18.36;100.00;99871.34;5102372;28;20685;-77
2023/06/24 06:34:05;;;;;;;0.40;0.40;;;;;;;18.25;100.00;99873.19;5090823;28;20194;-74
2023/06/24 06:36:32;;;;;;;0.50;0.30;;;;;;;18.27;100.00;99871.03;5092112;28;20629;-75
2023/06/24 06:38:58;;;;;;;0.40;0.40;;;;;;;18.26;100.00;99869.41;5091892;28;20274;-75
2023/06/24 06:41:25;;;;;;;0.30;0.30;;;;;;;18.33;100.00;99877.31;5092938;28;20720;-75
2023/06/24 06:43:52;;;;;;;0.60;0.30;;;;;;;18.31;100.00;99874.03;5097229;28;20192;-76
2023/06/24 06:46:20;;;;;;;1.33;0.40;;;;;;;18.40;100.00;99878.69;5093921;28;20227;-74
2023/06/24 06:48:46;;;;;;;0.70;0.40;;;;;;;18.51;100.00;99878.72;5111486;28;20669;-75
2023/06/24 06:51:13;;;;;;;0.20;0.20;;;;;;;18.70;100.00;99882.63;5106960;28;20658;-74
2023/06/24 06:53:40;;;;;;;0.20;0.20;;;;;;;18.59;100.00;99881.78;5107093;28;20211;-76
2023/06/24 06:56:06;;;;;;;0.20;0.20;;;;;;;18.59;100.00;99875.53;5112450;28;20246;-74
2023/06/24 06:58:33;;;;;;;0.30;0.30;;;;;;;18.74;100.00;99865.56;5112511;28;20224;-76
2023/06/24 07:01:04;;;;;;;0.73;0.30;;;;;;;18.56;100.00;99866.03;5112254;28;20269;-75
2023/06/24 07:03:31;;;;;;;0.30;0.30;;;;;;;18.81;100.00;99868.00;5112306;28;20230;-75
2023/06/24 07:05:58;;;;;;;0.20;0.20;;;;;;;18.86;100.00;99871.53;5105689;28;20204;-74
2023/06/24 07:08:25;;;;;;;0.20;0.20;;;;;;;19.06;100.00;99873.50;5112381;28;20257;-76
2023/06/24 07:10:52;;;;;;;0.20;0.20;;;;;;;19.04;100.00;99869.41;5111885;28;20237;-75
2023/06/24 07:13:18;;;;;;;0.30;0.20;;;;;;;19.31;100.00;99870.81;5108643;28;20198;-74
2023/06/24 07:15:45;;;;;;;0.30;0.30;;;;;;;19.46;100.00;99871.91;5109185;28;20270;-74
2023/06/24 07:18:12;;;;;;;0.30;0.20;;;;;;;19.58;100.00;99869.75;5109904;28;20266;-73
2023/06/24 07:20:38;;;;;;;0.20;0.20;;;;;;;19.80;100.00;99872.97;5101071;28;20184;-77
2023/06/24 07:23:08;;;;;;;0.30;0.30;;;;;;;19.65;100.00;99875.72;5112007;28;20190;-75
2023/06/24 07:25:34;;;;;;;0.20;0.20;;;;;;;19.49;100.00;99874.91;5093596;28;20682;-76
2023/06/24 07:28:02;;;;;;;0.30;0.30;;;;;;;19.12;100.00;99888.72;5111915;28;20193;-77
2023/06/24 07:30:29;;;;;;;0.30;0.30;;;;;;;19.04;100.00;99877.53;5108759;28;20608;-77
2023/06/24 07:32:55;;;;;;;0.30;0.30;;;;;;;19.31;100.00;99892.53;5093323;28;20259;-75
2023/06/24 07:35:22;;;;;;;0.20;0.20;;;;;;;19.00;100.00;99890.84;5111597;28;20585;-75
2023/06/24 07:37:49;;;;;;;0.40;0.40;;;;;;;19.10;100.00;99899.03;5104737;28;20270;-74
2023/06/24 07:40:15;;;;;;;0.30;0.30;;;;;;;18.91;100.00;99895.16;5096900;28;20189;-75
2023/06/24 07:42:42;;;;;;;0.30;0.30;;;;;;;18.89;100.00;99908.22;5111181;28;20188;-75
2023/06/24 07:45:09;;;;;;;0.30;0.30;;;;;;;18.60;100.00;99912.44;5106249;28;20650;-75
2023/06/24 07:47:36;;;;;;;0.30;0.30;;;;;;;18.58;100.00;99914.59;5109059;28;20188;-76
2023/06/24 07:50:03;;;;;;;0.40;0.40;;;;;;;18.49;100.00;99915.06;5112790;28;20213;-75
2023/06/24 07:52:30;;;;;;;0.40;0.40;;;;;;;18.28;100.00;99916.06;5115112;28;20199;-76
2023/06/24 07:54:56;;;;;;;0.40;0.40;;;;;;;18.36;100.00;99918.28;5115768;28;20245;-75
2023/06/24 07:57:23;;;;;;;0.30;0.30;;;;;;;18.19;100.00;99920.34;5115293;28;20220;-75
2023/06/24 07:59:50;;;;;;;0.40;0.30;;;;;;;18.39;100.00;99917.72;5111554;28;20192;-74
2023/06/24 08:02:17;;;;;;;0.40;0.40;;;;;;;18.41;100.00;99928.34;5115025;28;20286;-76
2023/06/24 08:04:43;;;;;;;0.40;0.40;;;;;;;18.46;100.00;99921.03;5115114;28;20231;-76
2023/06/24 08:07:10;;;;;;;0.30;0.30;;;;;;;18.48;100.00;99928.91;5111819;28;20200;-76
2023/06/24 08:09:37;;;;;;;0.50;0.40;;;;;;;18.65;100.00;99931.47;5111994;28;20189;-76
2023/06/24 08:12:04;;;;;;;0.20;0.20;;;;;;;18.63;100.00;99934.44;5114704;28;20742;-75
2023/06/24 08:14:31;;;;;;;0.30;0.30;;;;;;;18.64;100.00;99936.06;5110008;28;20198;-75
2023/06/24 08:16:58;;;;;;;0.20;0.20;;;;;;;18.63;100.00;99942.56;5110856;28;20617;-76
2023/06/24 08:19:24;;;;;;;0.63;0.33;;;;;;;18.58;100.00;99934.41;5113061;28;20192;-75
2023/06/24 08:21:51;;;;;;;0.50;0.50;;;;;;;18.58;100.00;99934.41;5115014;28;20192;-75
2023/06/24 08:24:18;;;;;;;0.50;0.50;;;;;;;18.63;100.00;99939.84;5115001;28;20193;-75
2023/06/24 08:26:44;;;;;;;0.60;0.60;;;;;;;18.92;100.00;99946.50;5114810;28;20217;-75
2023/06/24 08:29:11;;;;;;;0.90;0.90;;;;;;;19.09;100.00;99940.84;5110533;28;20250;-75
2023/06/24 08:31:38;;;;;;;1.00;0.80;;;;;;;18.94;100.00;99942.72;5112130;28;20196;-74
2023/06/24 08:34:06;;;;;;;1.10;1.00;;;;;;;19.04;100.00;99940.81;5111095;28;20253;-77
2023/06/24 08:36:33;;;;;;;1.10;1.10;;;;;;;19.21;100.00;99944.13;5115038;28;20197;-76
2023/06/24 08:39:00;;;;;;;1.50;1.20;;;;;;;19.04;100.00;99946.25;5114902;28;20234;-75
2023/06/24 08:41:26;;;;;;;1.50;1.40;;;;;;;19.02;100.00;99955.75;5114975;28;20741;-75
2023/06/24 08:43:54;;;;;;;1.10;1.10;;;;;;;18.82;100.00;99951.06;5114463;28;20185;-75
2023/06/24 08:46:21;;;;;;;1.30;1.20;;;;;;;18.76;100.00;99962.97;5114873;28;20638;-76
2023/06/24 08:48:48;;;;;;;1.30;1.10;;;;;;;18.83;100.00;99963.56;5096181;28;20197;-75
2023/06/24 08:51:18;;;;;;;1.57;1.20;;;;;;;19.03;100.00;99958.22;5110086;28;20682;-75
2023/06/24 08:53:45;;;;;;;1.50;1.40;;;;;;;18.85;100.00;99959.50;5089969;28;20276;-75
2023/06/24 08:56:13;;;;;;;1.50;1.40;;;;;;;18.97;100.00;99950.31;5096586;28;20720;-75
2023/06/24 08:58:40;;;;;;;1.50;1.40;;;;;;;18.94;100.00;99959.81;5104745;28;20211;-75
2023/06/24 09:01:07;;;;;;;1.60;1.50;;;;;;;18.93;100.00;99952.75;5107410;28;20769;-75
2023/06/24 09:03:35;;;;;;;1.43;1.33;;;;;;;18.85;100.00;99950.53;5096611;28;20220;-76
2023/06/24 09:06:02;;;;;;;1.50;1.40;;;;;;;18.98;100.00;99960.09;5109295;28;20196;-76
2023/06/24 09:08:29;;;;;;;1.30;1.20;;;;;;;18.97;100.00;99953.84;5114091;28;20672;-76
2023/06/24 09:10:56;;;;;;;1.20;1.20;;;;;;;18.92;100.00;99954.63;5111731;28;20193;-77
2023/06/24 09:13:34;;;;;;;1.30;1.20;;;;;;;18.84;100.00;99954.34;5108833;28;20205;-76
2023/06/24 09:16:12;;;;;;;1.03;1.03;;;;;;;18.73;100.00;99949.94;5113810;28;20207;-76
2023/06/24 09:18:39;;;;;;;0.90;0.90;;;;;;;18.90;100.00;99943.22;5112270;28;20215;-75
2023/06/24 09:21:06;;;;;;;1.00;1.00;;;;;;;18.98;100.00;99951.94;5112957;28;20192;-75
2023/06/24 09:23:39;;;;;;;1.10;1.00;;;;;;;19.06;100.00;99952.25;5113780;28;20195;-75
2023/06/24 09:26:10;;;;;;;1.07;0.90;;;;;;;18.95;100.00;99949.75;5110151;28;20199;-75
2023/06/24 09:28:37;;;;;;;1.10;1.00;;;;;;;19.12;100.00;99950.34;5113788;28;20622;-76
2023/06/24 09:31:08;;;;;;;1.10;1.10;;;;;;;19.23;100.00;99947.38;5113733;28;20192;-76
2023/06/24 09:33:45;;;;;;;1.10;1.10;;;;;;;19.32;100.00;99945.78;5107934;28;20677;-75
2023/06/24 09:36:14;;;;;;;1.27;1.20;;;;;;;19.41;100.00;99951.47;5112192;28;20249;-74
2023/06/24 09:38:42;;;;;;;3.17;1.70;;;;;;;19.13;100.00;99954.72;5112841;28;20220;-76
2023/06/24 09:41:08;;;;;;;1.40;1.30;;;;;;;19.45;100.00;99951.81;5107962;28;20192;-75
2023/06/24 09:43:43;;;;;;;1.43;1.30;;;;;;;19.23;100.00;99960.16;5111328;28;20192;-76
2023/06/24 09:46:11;;;;;;;1.30;1.23;;;;;;;19.23;100.00;99960.97;5112007;28;20292;-75
2023/06/24 09:48:38;;;;;;;1.50;1.40;;;;;;;19.11;100.00;99973.16;5113807;28;20206;-75
2023/06/24 09:51:05;;;;;;;1.30;1.20;;;;;;;19.28;100.00;99968.31;5095488;28;20195;-75
2023/06/24 09:53:34;;;;;;;1.50;1.40;;;;;;;19.16;100.00;99962.31;5112479;28;20282;-75
2023/06/24 09:56:03;;;;;;;1.23;1.13;;;;;;;19.09;100.00;99953.59;5104981;28;20614;-75
2023/06/24 09:58:36;;;;;;;1.30;1.20;;;;;;;19.59;100.00;99959.19;5107797;28;20214;-75
2023/06/24 10:01:05;;;;;;;1.20;1.10;;;;;;;19.67;100.00;99957.81;5111312;28;20198;-74
2023/06/24 10:03:36;;;;;;;1.67;1.57;;;;;;;19.80;100.00;99970.84;5107031;28;20657;-74
2023/06/24 10:06:04;;;;;;;1.00;1.00;;;;;;;19.60;100.00;99970.84;5113319;28;20668;-76
2023/06/24 10:08:31;;;;;;;1.27;1.00;;;;;;;19.56;100.00;99967.84;5112753;28;20574;-74
2023/06/24 10:11:00;;;;;;;1.43;1.00;;;;;;;19.07;100.00;99972.06;5113194;28;20201;-75
2023/06/24 10:13:27;;;;;;;1.33;1.23;;;;;;;19.07;100.00;99975.59;5111162;28;20225;-74
2023/06/24 10:15:55;;;;;;;1.83;1.20;;;;;;;19.09;100.00;99978.84;5095119;28;20193;-75
2023/06/24 10:18:34;;;;;;;1.20;1.10;;;;;;;18.85;100.00;99975.78;5095212;28;20235;-76
2023/06/24 10:21:05;;;;;;;1.30;1.20;;;;;;;19.08;100.00;99968.28;5106256;28;20201;-77
2023/06/24 10:23:38;;;;;;;1.43;1.33;;;;;;;19.08;100.00;99981.84;5110248;28;20203;-78
2023/06/24 10:26:29;;;;;;;1.70;1.60;;;;;;;19.09;100.00;99983.47;5112785;28;20201;-77
2023/06/24 10:29:06;;;;;;;2.07;1.97;;;;;;;19.07;100.00;99986.47;5095122;28;20231;-74
2023/06/24 10:31:38;;;;;;;1.90;1.80;;;;;;;19.09;100.00;99978.84;5113009;28;20294;-77
2023/06/24 10:34:37;;;;;;;2.10;1.90;;;;;;;19.21;100.00;99967.75;5112736;28;20188;-76
2023/06/24 10:37:19;;;;;;;2.57;2.10;;;;;;;18.83;100.00;99963.56;5105194;28;20196;-77
2023/06/24 10:39:50;;;;;;;2.10;2.00;;;;;;;18.67;100.00;99965.38;5108703;28;20298;-77
2023/06/24 10:42:23;;;;;;;2.50;2.30;;;;;;;18.72;100.00;99961.88;5112942;28;20195;-77
2023/06/24 10:44:50;;;;;;;2.27;2.17;;;;;;;18.83;100.00;99963.56;5112906;28;20298;-77
2023/06/24 10:47:18;;;;;;;2.57;2.40;;;;;;;18.84;100.00;99966.03;5112751;28;20187;-76
2023/06/24 10:49:45;;;;;;;2.50;2.30;;;;;;;18.96;100.00;99963.06;5105500;28;20188;-77
2023/06/24 10:52:12;;;;;;;2.50;2.30;;;;;;;18.86;100.00;99958.41;5111955;28;20250;-77
2023/06/24 10:54:40;;;;;;;2.60;2.40;;;;;;;18.90;100.00;99964.94;5094591;28;20193;-77
2023/06/24 10:57:08;;;;;;;2.53;2.33;;;;;;;18.68;100.00;99958.06;5087143;28;20243;-76
2023/06/24 10:59:35;;;;;;;2.57;2.37;;;;;;;18.60;100.00;99962.09;5089943;28;20728;-76
2023/06/24 11:02:02;;;;;;;2.27;2.13;;;;;;;18.56;100.00;99954.75;5111933;28;20702;-75
2023/06/24 11:04:29;;;;;;;2.50;2.30;;;;;;;18.54;100.00;99965.03;5098152;28;20242;-77
2023/06/24 11:07:02;;;;;;;2.60;2.40;;;;;;;18.58;100.00;99960.72;5112121;28;20192;-79
2023/06/24 11:09:29;;;;;;;2.27;2.17;;;;;;;18.52;100.00;99961.75;5112456;28;20216;-78
2023/06/24 11:11:55;;;;;;;2.00;1.90;;;;;;;18.42;100.00;99959.81;5112125;28;20200;-78
2023/06/24 11:14:22;;;;;;;2.20;2.00;;;;;;;18.53;100.00;99966.94;5110779;28;20198;-78
2023/06/24 11:16:49;;;;;;;2.30;2.10;;;;;;;18.51;100.00;99957.41;5111571;28;20184;-77
2023/06/24 11:19:16;;;;;;;2.60;2.40;;;;;;;18.58;100.00;99952.59;5104321;28;20268;-78
2023/06/24 11:21:43;;;;;;;2.03;1.90;;;;;;;18.76;100.00;99955.66;5111783;28;20192;-77
2023/06/24 11:24:11;;;;;;;2.83;2.13;;;;;;;18.69;100.00;99955.09;5112235;28;20261;-76
2023/06/24 11:26:38;;;;;;;2.30;2.10;;;;;;;18.63;100.00;99948.00;5111950;28;20697;-77
2023/06/24 11:29:11;;;;;;;2.13;2.03;;;;;;;18.76;100.00;99954.81;5111905;28;20228;-77
2023/06/24 11:31:37;;;;;;;2.13;1.90;;;;;;;18.80;100.00;99945.88;5109484;28;20254;-77